Time;durP1;ratioP1;P1;durP2;ratioP2;P2;SDS_P1;SDS_P2;PMS_P1;PMS_P2;Temp;Humidity;BMP_temperature;BMP_pressure;BME280_temperature;BME280_humidity;BME280_pressure;Samples;Min_cycle;Max_cycle;Signal;HPM_P1;HPM_P2
2020/12/21 00:00:25;;;;;;;89.10;24.60;;;;;;;0.46;96.78;101168.28;3467022;28;20501;-58
2020/12/21 00:02:06;;;;;;;110.80;28.77;;;;;;;0.46;96.47;101170.81;3467110;28;20133;-59
2020/12/21 00:03:48;;;;;;;88.93;25.90;;;;;;;0.46;96.58;101174.25;3465961;28;20051;-41
2020/12/21 00:05:30;;;;;;;115.95;30.00;;;;;;;0.47;96.81;101182.81;3467412;28;20465;-59
2020/12/21 00:07:11;;;;;;;111.05;26.98;;;;;;;0.47;96.69;101175.13;3464815;28;20068;-59
2020/12/21 00:08:53;;;;;;;113.57;27.05;;;;;;;0.49;96.81;101181.25;3468168;28;20073;-41
2020/12/21 00:10:34;;;;;;;92.13;26.00;;;;;;;0.48;96.50;101175.25;3469378;28;20124;-40
2020/12/21 00:12:16;;;;;;;101.10;24.50;;;;;;;0.49;96.63;101182.16;3470976;28;20054;-59
2020/12/21 00:13:57;;;;;;;127.93;29.00;;;;;;;0.49;96.51;101182.16;3472245;28;20050;-41
2020/12/21 00:15:39;;;;;;;136.32;30.90;;;;;;;0.50;96.43;101183.94;3473118;28;20509;-41
2020/12/21 00:17:20;;;;;;;90.45;23.80;;;;;;;0.49;96.70;101179.63;3470539;28;20087;-59
2020/12/21 00:19:01;;;;;;;92.32;25.10;;;;;;;0.48;96.79;101175.25;3471237;28;20041;-41
2020/12/21 00:20:43;;;;;;;93.13;26.10;;;;;;;0.47;96.69;101176.06;3471647;28;20053;-41
2020/12/21 00:22:24;;;;;;;109.38;27.75;;;;;;;0.46;96.64;101174.25;3471885;28;20142;-59
2020/12/21 00:24:07;;;;;;;99.75;27.73;;;;;;;0.46;96.72;101174.25;3469200;28;20510;-59
2020/12/21 00:25:48;;;;;;;159.30;32.30;;;;;;;0.47;96.42;101175.13;3474294;28;20041;-59
2020/12/21 00:27:30;;;;;;;108.28;26.42;;;;;;;0.47;96.62;101176.06;3471374;28;20482;-58
2020/12/21 00:29:11;;;;;;;187.02;33.65;;;;;;;0.48;96.49;101171.84;3472788;28;20136;-59
2020/12/21 00:30:54;;;;;;;111.65;29.05;;;;;;;0.48;96.66;101170.16;3470424;28;20048;-59
2020/12/21 00:32:47;;;;;;;97.80;24.27;;;;;;;0.49;96.49;101178.69;3473182;28;20139;-59
2020/12/21 00:34:29;;;;;;;109.18;27.65;;;;;;;0.48;96.45;101177.81;3472242;28;20049;-58
2020/12/21 00:36:10;;;;;;;147.85;31.00;;;;;;;0.49;96.82;101171.03;3473591;28;20048;-41
2020/12/21 00:37:51;;;;;;;158.52;33.45;;;;;;;0.48;96.71;101170.16;3469567;28;20053;-58
2020/12/21 00:39:33;;;;;;;111.18;28.42;;;;;;;0.48;96.75;101169.28;3473524;28;20513;-58
2020/12/21 00:41:16;;;;;;;122.63;28.85;;;;;;;0.49;96.94;101171.94;3470986;28;20095;-59
2020/12/21 00:42:58;;;;;;;103.95;29.60;;;;;;;0.48;96.71;101167.59;3473014;28;20061;-40
2020/12/21 00:44:40;;;;;;;108.10;28.92;;;;;;;0.49;96.62;101169.41;3469864;28;20080;-41
2020/12/21 00:46:25;;;;;;;133.77;30.23;;;;;;;0.50;96.72;101170.28;3472807;28;20041;-58
2020/12/21 00:48:06;;;;;;;136.70;30.08;;;;;;;0.48;96.48;101174.38;3471752;28;20049;-59
2020/12/21 00:49:48;;;;;;;126.50;29.20;;;;;;;0.46;96.46;101175.94;3474959;28;20537;-58
2020/12/21 00:51:30;;;;;;;101.13;26.77;;;;;;;0.42;96.67;101170.56;3467720;28;20049;-41
2020/12/21 00:53:11;;;;;;;98.63;28.48;;;;;;;0.42;96.67;101169.69;3474789;28;20514;-58
2020/12/21 00:54:53;;;;;;;79.20;23.27;;;;;;;0.39;96.44;101166.91;3469331;28;20458;-58
2020/12/21 00:56:34;;;;;;;104.18;26.85;;;;;;;0.38;96.37;101165.09;3472966;28;20049;-41
2020/12/21 00:58:16;;;;;;;108.10;26.42;;;;;;;0.35;96.58;101165.75;3465219;28;20049;-41
2020/12/21 00:59:57;;;;;;;107.45;27.92;;;;;;;0.36;96.41;101162.44;3473334;28;20056;-41
2020/12/21 01:01:39;;;;;;;108.90;26.10;;;;;;;0.35;96.43;101163.22;3469998;28;20045;-41
2020/12/21 01:03:21;;;;;;;113.80;29.33;;;;;;;0.36;96.37;101172.63;3473811;28;20045;-41
2020/12/21 01:05:02;;;;;;;112.53;28.33;;;;;;;0.37;96.58;101166.78;3470693;28;20060;-41
2020/12/21 01:06:44;;;;;;;133.65;29.95;;;;;;;0.37;96.60;101171.88;3473892;28;20045;-59
2020/12/21 01:08:26;;;;;;;119.80;24.83;;;;;;;0.38;96.68;101166.00;3470055;28;20084;-41
2020/12/21 01:10:07;;;;;;;110.90;28.52;;;;;;;0.36;96.61;101170.06;3474692;28;20041;-41
2020/12/21 01:11:51;;;;;;;73.47;19.73;;;;;;;0.36;96.75;101159.88;3468117;28;20046;-41
2020/12/21 01:13:33;;;;;;;100.05;25.75;;;;;;;0.35;96.68;101164.88;3474852;28;20087;-41
2020/12/21 01:15:14;;;;;;;123.88;29.58;;;;;;;0.33;96.66;101157.09;3467187;28;20493;-41
2020/12/21 01:16:57;;;;;;;129.50;30.10;;;;;;;0.32;96.68;101162.97;3470281;28;20148;-41
2020/12/21 01:18:38;;;;;;;136.98;30.05;;;;;;;0.31;96.43;101158.66;3469650;28;20053;-59
2020/12/21 01:20:19;;;;;;;159.10;32.03;;;;;;;0.31;96.51;101162.84;3472611;28;20052;-59
2020/12/21 01:22:02;;;;;;;116.32;30.15;;;;;;;0.29;96.50;101157.59;3469849;28;20571;-59
2020/12/21 01:23:43;;;;;;;116.82;27.05;;;;;;;0.29;96.84;101157.59;3474960;28;20456;-58
2020/12/21 01:25:25;;;;;;;125.63;27.85;;;;;;;0.28;96.50;101158.41;3471410;28;20045;-58
2020/12/21 01:27:06;;;;;;;113.15;27.88;;;;;;;0.27;96.65;101160.81;3476383;28;20525;-58
2020/12/21 01:28:48;;;;;;;180.60;36.58;;;;;;;0.25;96.76;101155.59;3473353;28;20057;-59
2020/12/21 01:30:30;;;;;;;121.65;29.25;;;;;;;0.22;96.54;101156.25;3477027;28;20050;-58
2020/12/21 01:32:12;;;;;;;102.60;23.88;;;;;;;0.21;96.65;101154.47;3471908;28;20077;-41
2020/12/21 01:33:53;;;;;;;82.93;19.88;;;;;;;0.19;96.82;101157.69;3475244;28;20049;-58
2020/12/21 01:35:35;;;;;;;92.88;24.55;;;;;;;0.19;96.45;101163.66;3469169;28;20080;-59
2020/12/21 01:37:16;;;;;;;175.93;31.83;;;;;;;0.18;96.53;101154.22;3472402;28;20528;-41
2020/12/21 01:38:58;;;;;;;122.88;30.02;;;;;;;0.17;96.74;101155.00;3471966;28;20060;-41
2020/12/21 01:40:39;;;;;;;105.20;26.48;;;;;;;0.16;96.77;101158.31;3477125;28;20136;-41
2020/12/21 01:42:20;;;;;;;114.63;27.15;;;;;;;0.16;96.67;101157.44;3471286;28;20050;-40
2020/12/21 01:44:02;;;;;;;128.65;21.55;;;;;;;0.14;96.79;101152.19;3476510;28;20072;-41
2020/12/21 01:45:43;;;;;;;98.43;25.42;;;;;;;0.15;96.63;101153.09;3470570;28;20045;-41
2020/12/21 01:47:26;;;;;;;101.03;23.48;;;;;;;0.14;96.93;101154.75;3476205;28;20101;-41
2020/12/21 01:49:07;;;;;;;50.92;12.07;;;;;;;0.15;96.76;101158.19;3473642;28;20042;-40
2020/12/21 01:50:49;;;;;;;89.53;21.42;;;;;;;0.14;96.76;101158.97;3475667;28;20072;-41
2020/12/21 01:52:31;;;;;;;98.82;23.92;;;;;;;0.13;96.68;101152.97;3470327;28;20048;-59
2020/12/21 01:54:13;;;;;;;140.05;27.25;;;;;;;0.12;96.59;101152.84;3476803;28;20462;-40
2020/12/21 01:55:58;;;;;;;71.40;17.95;;;;;;;0.09;96.58;101160.25;3470522;28;20053;-40
2020/12/21 01:57:40;;;;;;;64.28;19.35;;;;;;;0.09;96.61;101161.16;3476872;28;20505;-40
2020/12/21 01:59:21;;;;;;;81.07;20.17;;;;;;;0.09;96.84;101163.69;3470990;28;20052;-41
2020/12/21 02:01:04;;;;;;;80.38;18.80;;;;;;;0.09;96.55;101161.16;3475810;28;20079;-40
2020/12/21 02:02:46;;;;;;;76.25;21.80;;;;;;;0.08;96.95;101159.34;3473387;28;20060;-58
2020/12/21 02:04:28;;;;;;;74.20;21.10;;;;;;;0.07;96.69;101161.81;3474382;28;20634;-58
2020/12/21 02:06:10;;;;;;;78.25;20.80;;;;;;;0.08;96.90;101158.47;3470694;28;20048;-58
2020/12/21 02:07:51;;;;;;;112.72;25.42;;;;;;;0.08;96.52;101161.91;3474373;28;20056;-58
2020/12/21 02:09:34;;;;;;;103.65;22.30;;;;;;;0.10;96.68;101162.03;3473133;28;20071;-41
2020/12/21 02:11:15;;;;;;;157.35;25.60;;;;;;;0.09;96.62;101163.69;3474998;28;20099;-58
2020/12/21 02:12:56;;;;;;;104.57;23.65;;;;;;;0.10;96.65;101159.47;3472490;28;20049;-58
2020/12/21 02:14:38;;;;;;;144.63;25.85;;;;;;;0.08;96.67;101159.34;3473986;28;20635;-40
2020/12/21 02:16:19;;;;;;;59.72;16.25;;;;;;;0.07;96.64;101156.72;3473148;28;20049;-41
2020/12/21 02:18:01;;;;;;;94.40;21.27;;;;;;;0.06;96.60;101157.47;3473277;28;20584;-40
2020/12/21 02:19:43;;;;;;;94.18;22.80;;;;;;;0.06;96.85;101154.91;3471372;28;20460;-40
2020/12/21 02:21:26;;;;;;;84.45;21.63;;;;;;;0.05;96.59;101159.13;3472474;28;20107;-58
2020/12/21 02:23:07;;;;;;;104.10;22.88;;;;;;;0.06;96.80;101158.34;3473000;28;20418;-58
2020/12/21 02:24:49;;;;;;;94.97;21.02;;;;;;;0.06;96.75;101155.78;3473683;28;20832;-58
2020/12/21 02:26:31;;;;;;;89.57;24.00;;;;;;;0.04;96.69;101150.56;3473724;28;20045;-58
2020/12/21 02:28:12;;;;;;;120.30;23.35;;;;;;;0.05;96.73;101151.47;3474831;28;20053;-41
2020/12/21 02:29:53;;;;;;;99.57;21.00;;;;;;;0.04;96.79;101148.00;3473726;28;20046;-58
2020/12/21 02:31:35;;;;;;;80.07;22.13;;;;;;;0.05;96.87;101146.38;3474830;28;20057;-58
2020/12/21 02:33:16;;;;;;;72.55;18.27;;;;;;;0.05;96.93;101143.81;3472396;28;20457;-58
2020/12/21 02:34:58;;;;;;;105.78;22.63;;;;;;;0.04;96.82;101142.03;3473817;28;20053;-58
2020/12/21 02:36:40;;;;;;;95.05;23.45;;;;;;;0.04;96.90;101147.13;3472877;28;20072;-58
2020/12/21 02:38:22;;;;;;;108.43;23.60;;;;;;;0.04;96.82;101152.22;3473673;28;20064;-40
2020/12/21 02:40:04;;;;;;;87.32;20.98;;;;;;;0.03;96.67;101148.81;3472120;28;20052;-58
2020/12/21 02:41:45;;;;;;;85.97;20.17;;;;;;;0.02;96.76;101153.78;3473565;28;20493;-58
2020/12/21 02:43:26;;;;;;;88.10;20.02;;;;;;;0.02;97.00;101153.78;3474397;28;20046;-58
2020/12/21 02:45:08;;;;;;;89.40;18.95;;;;;;;0.03;96.81;101158.09;3473377;28;20091;-41
2020/12/21 02:46:49;;;;;;;77.05;19.15;;;;;;;0.03;96.85;101159.00;3471863;28;20076;-41
2020/12/21 02:48:30;;;;;;;101.82;21.08;;;;;;;0.05;96.66;101156.59;3474214;28;20045;-58
2020/12/21 02:50:12;;;;;;;80.43;20.00;;;;;;;0.04;97.03;101155.66;3471976;28;20045;-58
2020/12/21 02:51:54;;;;;;;86.47;21.00;;;;;;;0.03;96.62;101161.56;3473546;28;20061;-58
2020/12/21 02:53:35;;;;;;;96.40;21.85;;;;;;;0.03;96.87;101160.66;3472926;28;20114;-40
2020/12/21 02:55:17;;;;;;;104.30;23.00;;;;;;;0.02;96.86;101162.31;3469534;28;20083;-40
2020/12/21 02:56:58;;;;;;;142.13;26.27;;;;;;;0.03;96.82;101163.19;3473076;28;20048;-58
2020/12/21 02:58:40;;;;;;;121.47;23.00;;;;;;;0.03;96.87;101165.75;3474220;28;20156;-58
2020/12/21 03:00:21;;;;;;;120.82;21.10;;;;;;;0.02;96.68;101164.88;3473128;28;20382;-40
2020/12/21 03:02:03;;;;;;;115.50;21.25;;;;;;;0.02;97.06;101161.44;3474099;28;20091;-40
2020/12/21 03:03:44;;;;;;;117.40;24.75;;;;;;;0.02;96.63;101164.88;3473658;28;20055;-41
2020/12/21 03:05:26;;;;;;;111.78;25.60;;;;;;;0.02;96.83;101162.31;3474859;28;20056;-40
2020/12/21 03:07:08;;;;;;;98.30;21.08;;;;;;;0.03;96.71;101171.75;3472534;28;20049;-41
2020/12/21 03:08:49;;;;;;;103.30;23.48;;;;;;;0.03;96.92;101166.66;3473049;28;20051;-41
2020/12/21 03:10:31;;;;;;;104.03;22.70;;;;;;;0.04;97.00;101172.66;3472454;28;20081;-58
2020/12/21 03:12:13;;;;;;;95.47;22.02;;;;;;;0.06;96.71;101172.78;3472782;28;20048;-41
2020/12/21 03:13:56;;;;;;;84.40;19.80;;;;;;;0.07;96.61;101175.44;3471921;28;20049;-41
2020/12/21 03:15:37;;;;;;;77.55;17.75;;;;;;;0.05;96.70;101177.00;3470289;28;20514;-41
2020/12/21 03:17:19;;;;;;;113.53;22.55;;;;;;;0.02;96.65;101172.53;3472029;28;20080;-40
2020/12/21 03:19:00;;;;;;;120.45;23.80;;;;;;;0.02;96.95;101176.75;3469842;28;20472;-40
2020/12/21 03:20:42;;;;;;;64.50;18.05;;;;;;;0.01;96.96;101183.50;3472265;28;20552;-41
2020/12/21 03:22:24;;;;;;;123.35;24.83;;;;;;;0.01;96.77;101175.84;3472766;28;20060;-41
2020/12/21 03:24:06;;;;;;;69.95;16.85;;;;;;;0.01;96.96;101168.22;3473395;28;20076;-58
2020/12/21 03:25:47;;;;;;;49.05;14.73;;;;;;;0.01;97.01;101173.31;3471903;28;20516;-40
2020/12/21 03:27:29;;;;;;;102.90;20.85;;;;;;;-0.00;96.96;101165.53;3473079;28;20096;-40
2020/12/21 03:29:10;;;;;;;86.38;19.67;;;;;;;-0.01;96.88;101173.94;3472265;28;20051;-58
2020/12/21 03:30:51;;;;;;;95.13;20.50;;;;;;;-0.02;96.67;101167.94;3473710;28;20052;-58
2020/12/21 03:32:33;;;;;;;79.57;18.23;;;;;;;-0.02;96.81;101164.53;3471250;28;20049;-58
2020/12/21 03:34:14;;;;;;;80.38;19.33;;;;;;;-0.02;96.65;101170.50;3473464;28;20068;-58
2020/12/21 03:35:57;;;;;;;85.50;22.40;;;;;;;-0.03;96.70;101162.72;3470358;28;20067;-40
2020/12/21 03:37:39;;;;;;;93.15;21.88;;;;;;;-0.00;96.94;101173.19;3472229;28;20050;-58
2020/12/21 03:39:20;;;;;;;94.90;21.27;;;;;;;0.02;96.74;101169.09;3472874;28;20444;-40
2020/12/21 03:41:02;;;;;;;91.53;19.00;;;;;;;0.03;97.03;101169.22;3472861;28;20531;-58
2020/12/21 03:42:43;;;;;;;94.47;22.13;;;;;;;0.08;97.13;101168.69;3471829;28;20060;-59
2020/12/21 03:44:24;;;;;;;109.43;22.48;;;;;;;0.10;97.12;101168.03;3471844;28;20103;-58
2020/12/21 03:46:06;;;;;;;95.82;21.45;;;;;;;0.12;97.02;101166.50;3472281;28;20056;-40
2020/12/21 03:47:47;;;;;;;94.28;20.77;;;;;;;0.13;96.87;101167.38;3474285;28;20041;-40
2020/12/21 03:49:29;;;;;;;114.43;23.77;;;;;;;0.15;97.02;101168.41;3470789;28;20049;-40
2020/12/21 03:51:10;;;;;;;84.85;19.52;;;;;;;0.16;96.90;101170.19;3472819;28;20041;-41
2020/12/21 03:52:52;;;;;;;97.07;22.30;;;;;;;0.18;97.13;101168.66;3472055;28;20427;-41
2020/12/21 03:54:34;;;;;;;131.32;24.30;;;;;;;0.17;97.19;101167.75;3473256;28;20087;-58
2020/12/21 03:56:16;;;;;;;137.60;27.50;;;;;;;0.16;97.16;101160.88;3471739;28;20046;-58
2020/12/21 03:57:57;;;;;;;112.47;25.20;;;;;;;0.14;97.12;101170.06;3472756;28;20045;-58
2020/12/21 03:59:39;;;;;;;105.93;23.52;;;;;;;0.15;97.16;101170.94;3471226;28;20049;-58
2020/12/21 04:01:20;;;;;;;102.75;23.33;;;;;;;0.17;97.15;101171.94;3473645;28;20049;-58
2020/12/21 04:03:01;;;;;;;90.95;23.45;;;;;;;0.19;97.14;101170.44;3470517;28;20072;-40
2020/12/21 04:04:56;;;;;;;92.82;19.85;;;;;;;0.22;96.85;101171.56;3473963;28;20139;-58
2020/12/21 04:06:39;;;;;;;98.85;26.13;;;;;;;0.25;97.00;101168.34;3466421;28;20391;-41
2020/12/21 04:08:21;;;;;;;123.35;23.77;;;;;;;0.27;97.08;101165.94;3474521;28;20631;-40
2020/12/21 04:10:04;;;;;;;106.25;23.35;;;;;;;0.28;96.95;101170.25;3470788;28;20048;-40
2020/12/21 04:11:46;;;;;;;97.75;22.92;;;;;;;0.29;96.94;101165.25;3474115;28;20053;-40
2020/12/21 04:13:27;;;;;;;109.07;23.92;;;;;;;0.30;97.06;101167.06;3467178;28;20053;-41
2020/12/21 04:15:19;;;;;;;98.03;21.48;;;;;;;0.31;97.04;101170.50;3470919;28;20538;-40
2020/12/21 04:17:01;;;;;;;118.68;26.65;;;;;;;0.31;97.02;101162.84;3466071;28;20084;-40
2020/12/21 04:18:43;;;;;;;82.95;22.80;;;;;;;0.32;96.96;101164.63;3473405;28;20060;-58
2020/12/21 04:20:25;;;;;;;93.18;22.75;;;;;;;0.35;97.26;101162.34;3468991;28;20056;-59
2020/12/21 04:22:06;;;;;;;96.13;23.38;;;;;;;0.37;97.22;101166.78;3474459;28;20045;-40
2020/12/21 04:23:48;;;;;;;106.43;22.92;;;;;;;0.39;97.30;101165.22;3472040;28;20076;-41
2020/12/21 04:25:30;;;;;;;92.93;21.63;;;;;;;0.40;97.32;101159.38;3475002;28;20442;-40
2020/12/21 04:27:11;;;;;;;120.07;25.05;;;;;;;0.43;96.94;101161.25;3468218;28;20041;-58
2020/12/21 04:28:52;;;;;;;92.75;21.85;;;;;;;0.43;97.00;101156.16;3475227;28;20571;-58
2020/12/21 04:30:34;;;;;;;95.00;21.58;;;;;;;0.43;97.22;101157.03;3469489;28;20090;-59
2020/12/21 04:32:15;;;;;;;91.55;20.52;;;;;;;0.46;97.21;101160.63;3475564;28;20049;-58
2020/12/21 04:33:57;;;;;;;119.95;26.30;;;;;;;0.45;97.29;101161.38;3468623;28;20053;-40
2020/12/21 04:35:38;;;;;;;90.25;23.35;;;;;;;0.41;97.27;101153.47;3470851;28;20049;-40
2020/12/21 04:37:20;;;;;;;100.80;23.02;;;;;;;0.42;96.94;101152.72;3469176;28;20049;-41
2020/12/21 04:39:02;;;;;;;95.72;22.55;;;;;;;0.43;96.88;101158.69;3477824;28;20041;-40
2020/12/21 04:40:49;;;;;;;89.57;22.30;;;;;;;0.43;97.27;101154.47;3471302;28;20513;-40
2020/12/21 04:42:31;;;;;;;91.32;21.55;;;;;;;0.46;96.95;101155.50;3471527;28;20052;-41
2020/12/21 04:44:12;;;;;;;91.20;22.50;;;;;;;0.45;97.19;101151.16;3471267;28;20049;-59
2020/12/21 04:45:55;;;;;;;110.55;25.05;;;;;;;0.47;97.14;101149.63;3471381;28;20060;-59
2020/12/21 04:47:37;;;;;;;105.47;24.65;;;;;;;0.48;97.00;101147.19;3471853;28;20045;-41
2020/12/21 04:49:19;;;;;;;90.07;23.45;;;;;;;0.48;97.28;101149.75;3472879;28;20048;-59
2020/12/21 04:51:03;;;;;;;87.93;19.77;;;;;;;0.48;97.19;101159.94;3473412;28;20076;-59
2020/12/21 04:52:49;;;;;;;103.38;23.92;;;;;;;0.48;97.21;101148.84;3473365;28;20513;-40
2020/12/21 04:54:31;;;;;;;92.35;22.95;;;;;;;0.48;97.05;101154.84;3473135;28;20479;-41
2020/12/21 04:56:13;;;;;;;89.68;23.90;;;;;;;0.50;96.98;101149.84;3472645;28;20418;-41
2020/12/21 04:57:58;;;;;;;106.45;24.00;;;;;;;0.51;97.30;101159.31;3477650;28;20052;-58
2020/12/21 04:59:40;;;;;;;115.60;26.45;;;;;;;0.53;97.01;101158.66;3472102;28;20599;-59
2020/12/21 05:01:21;;;;;;;116.72;25.55;;;;;;;0.55;97.07;101153.66;3474963;28;20077;-59
2020/12/21 05:03:05;;;;;;;124.13;27.38;;;;;;;0.57;97.17;101159.78;3473993;28;20049;-59
2020/12/21 05:04:52;;;;;;;105.85;21.77;;;;;;;0.58;97.06;101149.69;3475167;28;20202;-59
2020/12/21 05:06:33;;;;;;;114.38;25.13;;;;;;;0.60;96.98;101147.25;3475602;28;20176;-59
2020/12/21 05:08:17;;;;;;;159.52;29.13;;;;;;;0.60;97.13;101150.69;3476712;28;20048;-59
2020/12/21 05:10:06;;;;;;;125.57;27.48;;;;;;;0.59;96.95;101151.47;3471280;28;20045;-59
2020/12/21 05:11:53;;;;;;;117.82;26.27;;;;;;;0.58;97.02;101154.78;3475928;28;20113;-40
2020/12/21 05:13:36;;;;;;;105.25;25.83;;;;;;;0.60;97.04;101158.34;3473528;28;20053;-40
2020/12/21 05:15:20;;;;;;;133.13;28.63;;;;;;;0.60;97.01;101155.78;3470531;28;20050;-59
2020/12/21 05:17:11;;;;;;;93.75;21.60;;;;;;;0.61;97.29;101151.56;3476766;28;20049;-60
2020/12/21 05:18:53;;;;;;;118.90;22.88;;;;;;;0.63;97.17;101155.16;3473371;28;20045;-60
2020/12/21 05:20:36;;;;;;;126.32;24.27;;;;;;;0.65;97.29;101155.25;3473960;28;20053;-40
2020/12/21 05:22:18;;;;;;;187.15;25.85;;;;;;;0.65;97.31;101153.59;3472408;28;20100;-42
2020/12/21 05:24:01;;;;;;;100.28;22.15;;;;;;;0.66;96.97;101157.94;3473725;28;20581;-59
2020/12/21 05:25:43;;;;;;;121.07;27.08;;;;;;;0.68;97.31;101153.81;3475772;28;20045;-59
2020/12/21 05:27:24;;;;;;;100.53;23.55;;;;;;;0.70;97.05;101161.59;3474980;28;20077;-59
2020/12/21 05:29:06;;;;;;;94.18;21.48;;;;;;;0.70;96.99;101164.16;3474969;28;20079;-59
2020/12/21 05:30:51;;;;;;;91.28;22.55;;;;;;;0.72;97.33;101167.72;3474733;28;20046;-59
2020/12/21 05:32:33;;;;;;;107.68;22.20;;;;;;;0.72;97.00;101163.53;3470749;28;20088;-41
2020/12/21 05:34:23;;;;;;;86.43;20.17;;;;;;;0.73;96.97;101162.72;3474025;28;20472;-41
2020/12/21 05:36:08;;;;;;;83.90;21.48;;;;;;;0.73;97.32;101159.28;3482230;28;20096;-41
2020/12/21 05:37:49;;;;;;;76.75;19.88;;;;;;;0.73;96.93;101161.84;3471211;28;20049;-41
2020/12/21 05:39:31;;;;;;;119.70;23.60;;;;;;;0.73;96.93;101160.19;3473480;28;20076;-41
2020/12/21 05:41:16;;;;;;;78.55;20.70;;;;;;;0.73;96.88;101160.19;3481893;28;20081;-41
2020/12/21 05:42:58;;;;;;;91.43;19.33;;;;;;;0.74;97.12;101155.97;3479585;28;20497;-41
2020/12/21 05:44:50;;;;;;;86.85;20.33;;;;;;;0.75;97.22;101163.75;3479534;28;20049;-41
2020/12/21 05:46:31;;;;;;;101.45;22.08;;;;;;;0.76;97.09;101165.53;3484175;28;20056;-41
2020/12/21 05:48:14;;;;;;;80.55;20.45;;;;;;;0.78;97.26;101166.53;3479789;28;20071;-59
2020/12/21 05:49:58;;;;;;;102.38;20.58;;;;;;;0.80;97.03;101166.66;3479885;28;20395;-59
2020/12/21 05:51:47;;;;;;;78.20;18.50;;;;;;;0.81;97.20;101171.00;3469908;28;20052;-59
2020/12/21 05:53:40;;;;;;;89.18;20.33;;;;;;;0.82;97.29;101161.66;3469128;28;20818;-59
2020/12/21 05:55:21;;;;;;;86.65;20.55;;;;;;;0.85;97.08;101177.22;3469142;28;20073;-41
2020/12/21 05:57:04;;;;;;;133.80;24.90;;;;;;;0.85;97.29;101174.69;3469405;28;20075;-41
2020/12/21 05:58:46;;;;;;;99.60;24.77;;;;;;;0.85;97.17;101169.56;3469643;28;20529;-41
2020/12/21 06:00:27;;;;;;;85.32;21.35;;;;;;;0.82;97.29;101177.88;3469490;28;20057;-41
2020/12/21 06:02:09;;;;;;;66.03;17.90;;;;;;;0.80;96.94;101175.19;3471044;28;20486;-40
2020/12/21 06:03:51;;;;;;;82.78;18.85;;;;;;;0.79;97.01;101178.53;3469875;28;20116;-41
2020/12/21 06:05:36;;;;;;;77.68;19.50;;;;;;;0.79;97.27;101172.56;3476127;28;20502;-41
2020/12/21 06:07:22;;;;;;;78.53;20.25;;;;;;;0.77;96.91;101174.97;3469454;28;20049;-59
2020/12/21 06:09:05;;;;;;;72.50;19.33;;;;;;;0.78;97.25;101183.53;3470815;28;20041;-59
2020/12/21 06:10:55;;;;;;;76.73;19.43;;;;;;;0.78;97.25;101184.41;3469856;28;20410;-58
2020/12/21 06:12:46;;;;;;;80.57;21.83;;;;;;;0.79;96.92;101186.22;3478431;28;20095;-59
2020/12/21 06:14:28;;;;;;;80.75;19.08;;;;;;;0.82;97.13;101182.09;3470188;28;20134;-40
2020/12/21 06:16:14;;;;;;;79.95;20.05;;;;;;;0.85;96.89;101182.34;3469193;28;20099;-41
2020/12/21 06:17:56;;;;;;;73.20;20.77;;;;;;;0.85;97.16;101193.44;3469373;28;20042;-59
2020/12/21 06:19:38;;;;;;;80.07;19.08;;;;;;;0.86;97.05;101192.69;3465670;28;20095;-41
2020/12/21 06:21:23;;;;;;;71.82;18.15;;;;;;;0.87;97.13;101186.78;3469552;28;20057;-59
2020/12/21 06:23:09;;;;;;;76.47;18.60;;;;;;;0.87;97.07;101184.22;3471724;28;20053;-41
2020/12/21 06:24:51;;;;;;;73.18;18.77;;;;;;;0.88;97.21;101183.47;3468528;28;20509;-41
2020/12/21 06:26:39;;;;;;;70.05;16.52;;;;;;;0.89;97.15;101189.47;3468371;28;20063;-41
2020/12/21 06:28:28;;;;;;;72.53;19.38;;;;;;;0.89;97.16;101190.34;3469416;28;20049;-59
2020/12/21 06:30:14;;;;;;;53.40;15.70;;;;;;;0.89;96.94;101194.56;3468003;28;20049;-59
2020/12/21 06:32:05;;;;;;;48.08;14.77;;;;;;;0.89;97.18;101194.56;3469760;28;20104;-41
2020/12/21 06:33:46;;;;;;;61.40;15.77;;;;;;;0.88;97.03;101193.69;3468801;28;20053;-41
2020/12/21 06:35:28;;;;;;;49.47;14.50;;;;;;;0.88;96.91;101192.81;3469022;28;20452;-41
2020/12/21 06:37:10;;;;;;;47.55;14.02;;;;;;;0.88;96.99;101188.59;3470050;28;20056;-41
2020/12/21 06:38:52;;;;;;;54.08;15.30;;;;;;;0.89;97.18;101192.00;3469681;28;20432;-41
2020/12/21 06:40:35;;;;;;;56.30;15.20;;;;;;;0.88;96.85;101190.25;3469486;28;20045;-40
2020/12/21 06:42:24;;;;;;;41.10;12.48;;;;;;;0.88;97.17;101190.25;3468809;28;20052;-58
2020/12/21 06:44:08;;;;;;;42.17;13.20;;;;;;;0.87;97.16;101193.56;3470519;28;20048;-42
2020/12/21 06:45:50;;;;;;;54.03;13.35;;;;;;;0.91;96.96;101186.28;3471918;28;20053;-41
2020/12/21 06:47:47;;;;;;;40.85;12.05;;;;;;;1.12;96.99;101197.19;3469619;28;20051;-41
2020/12/21 06:49:29;;;;;;;33.92;10.27;;;;;;;1.15;96.92;101194.00;3470310;28;20118;-40
2020/12/21 06:51:13;;;;;;;33.97;10.90;;;;;;;1.13;96.95;101193.00;3483499;28;20060;-41
2020/12/21 06:52:54;;;;;;;42.42;11.40;;;;;;;1.11;97.20;101197.13;3479023;28;20048;-41
2020/12/21 06:54:36;;;;;;;44.55;11.82;;;;;;;1.08;96.85;101196.88;3470472;28;20064;-41
2020/12/21 06:56:18;;;;;;;40.67;10.73;;;;;;;1.03;97.00;101200.75;3469993;28;20045;-41
2020/12/21 06:58:01;;;;;;;31.52;10.73;;;;;;;0.98;97.04;101198.72;3469581;28;20049;-59
2020/12/21 06:59:55;;;;;;;35.00;12.55;;;;;;;0.95;96.71;101200.16;3471460;28;20132;-58
2020/12/21 07:01:38;;;;;;;37.85;11.10;;;;;;;0.93;96.69;101194.94;3469695;28;20057;-58
2020/12/21 07:03:20;;;;;;;35.42;11.43;;;;;;;0.92;96.80;101199.91;3469101;28;20064;-58
2020/12/21 07:05:08;;;;;;;38.10;11.07;;;;;;;0.91;96.82;101206.72;3469026;28;20052;-59
2020/12/21 07:06:53;;;;;;;35.45;11.48;;;;;;;0.91;96.62;101198.13;3467876;28;20057;-59
2020/12/21 07:08:34;;;;;;;39.60;11.50;;;;;;;0.92;96.90;101203.34;3469593;28;20049;-59
2020/12/21 07:10:16;;;;;;;35.45;11.77;;;;;;;0.94;96.79;101203.47;3469114;28;20042;-59
2020/12/21 07:11:59;;;;;;;31.25;10.40;;;;;;;0.94;96.64;101195.81;3468785;28;20136;-58
2020/12/21 07:13:40;;;;;;;30.67;9.52;;;;;;;0.96;96.97;101204.47;3467164;28;20045;-59
2020/12/21 07:15:22;;;;;;;31.52;9.88;;;;;;;0.96;96.68;101200.25;3468739;28;20073;-58
2020/12/21 07:17:05;;;;;;;30.70;9.10;;;;;;;0.97;97.00;101202.06;3470322;28;20046;-58
2020/12/21 07:18:47;;;;;;;30.60;8.45;;;;;;;0.99;96.80;101202.16;3467138;28;20049;-59
2020/12/21 07:20:29;;;;;;;25.63;9.23;;;;;;;1.00;96.62;101201.41;3469294;28;20049;-58
2020/12/21 07:22:12;;;;;;;25.65;9.48;;;;;;;1.01;96.76;101198.06;3472582;28;20084;-59
2020/12/21 07:23:57;;;;;;;23.77;9.85;;;;;;;1.04;96.79;101202.53;3477891;28;20056;-59
2020/12/21 07:25:47;;;;;;;19.35;7.57;;;;;;;1.05;96.94;101210.28;3464313;28;20089;-58
2020/12/21 07:27:32;;;;;;;20.80;7.65;;;;;;;1.06;96.91;101199.31;3465333;28;20057;-59
2020/12/21 07:29:13;;;;;;;20.60;7.60;;;;;;;1.06;96.71;101196.75;3482799;28;20106;-58
2020/12/21 07:31:09;;;;;;;16.42;6.95;;;;;;;1.07;96.78;101203.66;3478480;28;20053;-59
2020/12/21 07:32:50;;;;;;;20.98;7.03;;;;;;;1.08;96.56;101199.44;3476381;28;20056;-59
2020/12/21 07:34:32;;;;;;;15.68;6.47;;;;;;;1.09;96.69;101201.19;3468947;28;20057;-59
2020/12/21 07:36:14;;;;;;;18.08;7.28;;;;;;;1.09;96.68;101196.09;3477221;28;20045;-59
2020/12/21 07:37:56;;;;;;;19.58;7.57;;;;;;;1.09;96.44;101191.88;3478369;28;20133;-59
2020/12/21 07:39:38;;;;;;;16.30;5.90;;;;;;;1.10;96.53;101195.31;3468663;28;20497;-59
2020/12/21 07:41:24;;;;;;;17.60;6.47;;;;;;;1.08;96.54;101202.88;3469449;28;20076;-60
2020/12/21 07:43:09;;;;;;;12.68;5.47;;;;;;;1.09;96.45;101203.75;3465527;28;20172;-59
2020/12/21 07:44:58;;;;;;;13.38;6.47;;;;;;;1.08;96.52;101201.97;3468541;28;20502;-59
2020/12/21 07:46:44;;;;;;;13.35;6.18;;;;;;;1.08;96.39;101201.97;3467548;28;20061;-59
2020/12/21 07:48:26;;;;;;;13.02;5.50;;;;;;;1.08;96.46;101201.97;3468205;28;20494;-60
2020/12/21 07:50:07;;;;;;;16.70;6.65;;;;;;;1.09;96.35;101203.75;3470096;28;20057;-59